createdAt,value
2023-05-02T00:00:45.446Z,16.50
2023-05-02T00:03:14.070Z,16.40
2023-05-02T00:05:42.223Z,16.40
2023-05-02T00:08:10.659Z,16.40
2023-05-02T00:10:38.670Z,16.30
2023-05-02T00:13:06.832Z,16.30
2023-05-02T00:15:34.815Z,16.20
2023-05-02T00:18:04.252Z,16.20
2023-05-02T00:20:32.299Z,16.20
2023-05-02T00:23:00.501Z,16.10
2023-05-02T00:25:28.732Z,16.10
2023-05-02T00:27:57.015Z,16.10
2023-05-02T00:30:25.077Z,16.00
2023-05-02T00:32:54.291Z,16.00
2023-05-02T00:35:23.742Z,16.00
2023-05-02T00:37:51.788Z,16.00
2023-05-02T00:40:20.309Z,16.00
2023-05-02T00:42:48.333Z,15.90
2023-05-02T00:45:16.716Z,15.90
2023-05-02T00:47:45.017Z,15.90
2023-05-02T00:50:13.139Z,15.80
2023-05-02T00:52:43.118Z,15.80
2023-05-02T00:55:11.377Z,15.80
2023-05-02T00:57:39.540Z,15.80
2023-05-02T01:00:10.697Z,15.80
2023-05-02T01:02:49.487Z,15.80
2023-05-02T01:05:22.198Z,15.80
2023-05-02T01:08:10.138Z,15.70
2023-05-02T01:10:54.496Z,15.70
2023-05-02T01:13:23.983Z,15.70
2023-05-02T01:15:54.372Z,15.60
2023-05-02T01:18:24.791Z,15.60
2023-05-02T01:20:58.511Z,15.50
2023-05-02T01:23:36.584Z,15.50
2023-05-02T01:26:16.099Z,15.50
2023-05-02T01:29:00.009Z,15.50
2023-05-02T01:31:29.985Z,15.50
2023-05-02T01:33:59.941Z,15.40
2023-05-02T01:36:31.293Z,15.50
2023-05-02T01:39:01.386Z,15.50
2023-05-02T01:41:35.577Z,15.50
2023-05-02T01:44:06.928Z,15.50
2023-05-02T01:46:41.111Z,15.50
2023-05-02T01:49:10.011Z,15.40
2023-05-02T01:51:44.282Z,15.40
2023-05-02T01:54:14.906Z,15.40
2023-05-02T01:59:41.586Z,15.30
2023-05-02T02:02:11.268Z,15.30
2023-05-02T02:04:41.047Z,15.20
2023-05-02T02:07:12.344Z,15.20
2023-05-02T02:09:40.783Z,15.10
2023-05-02T02:12:13.461Z,15.20
2023-05-02T02:14:49.367Z,15.10
2023-05-02T02:17:33.442Z,15.10
2023-05-02T02:20:04.379Z,15.10
2023-05-02T02:22:38.346Z,15.00
2023-05-02T02:25:09.792Z,15.00
2023-05-02T02:27:38.710Z,15.00
2023-05-02T02:30:09.509Z,14.90
2023-05-02T02:32:37.859Z,14.80
2023-05-02T02:35:07.379Z,14.80
2023-05-02T02:37:40.420Z,14.80
2023-05-02T02:40:23.050Z,14.70
2023-05-02T02:42:57.201Z,14.70
2023-05-02T02:45:34.972Z,14.60
2023-05-02T02:48:12.164Z,14.60
2023-05-02T02:50:49.281Z,14.60
2023-05-02T02:53:21.798Z,14.50
2023-05-02T02:55:57.382Z,14.40
2023-05-02T02:58:37.958Z,14.40
2023-05-02T03:01:12.764Z,14.30
2023-05-02T03:03:41.782Z,14.30
2023-05-02T03:06:10.049Z,14.30
2023-05-02T03:08:41.603Z,14.20
2023-05-02T03:11:09.760Z,14.20
2023-05-02T03:13:38.076Z,14.10
2023-05-02T03:16:36.594Z,14.10
2023-05-02T03:19:05.146Z,14.10
2023-05-02T03:21:34.471Z,14.10
2023-05-02T03:24:03.858Z,14.00
2023-05-02T03:26:31.976Z,14.00
2023-05-02T03:28:59.946Z,14.00
2023-05-02T03:31:27.998Z,14.00
2023-05-02T03:33:57.795Z,14.00
2023-05-02T03:36:25.872Z,14.00
2023-05-02T03:38:54.048Z,13.90
2023-05-02T03:41:22.204Z,13.90
2023-05-02T03:43:50.209Z,13.90
2023-05-02T03:46:18.411Z,13.90
2023-05-02T03:48:46.631Z,13.90
2023-05-02T03:51:16.043Z,13.90
2023-05-02T03:53:44.386Z,13.90
2023-05-02T03:56:12.392Z,13.80
2023-05-02T03:58:40.567Z,13.80
2023-05-02T04:01:15.581Z,13.80
2023-05-02T04:03:43.920Z,13.80
2023-05-02T04:06:13.098Z,13.70
2023-05-02T04:08:43.448Z,13.70
2023-05-02T04:11:11.521Z,13.70
2023-05-02T04:13:39.497Z,13.70
2023-05-02T04:16:07.790Z,13.70
2023-05-02T04:18:35.808Z,13.70
2023-05-02T04:21:03.887Z,13.70
2023-05-02T04:23:31.935Z,13.70
2023-05-02T04:26:01.270Z,13.70
2023-05-02T04:28:29.690Z,13.80
2023-05-02T04:30:58.552Z,13.80
2023-05-02T04:33:26.686Z,13.90
2023-05-02T04:35:54.706Z,13.90
2023-05-02T04:38:22.776Z,13.90
2023-05-02T04:40:52.490Z,14.00
2023-05-02T04:43:24.257Z,14.00
2023-05-02T04:45:52.928Z,14.00
2023-05-02T04:48:21.767Z,14.00
2023-05-02T04:50:50.585Z,14.10
2023-05-02T04:53:20.635Z,14.10
2023-05-02T04:55:48.710Z,14.20
2023-05-02T04:58:16.950Z,14.30
2023-05-02T05:00:46.550Z,14.30
2023-05-02T05:03:14.655Z,14.30
2023-05-02T05:05:42.889Z,14.40
2023-05-02T05:08:11.446Z,14.40
2023-05-02T05:10:40.432Z,14.40
2023-05-02T05:13:08.483Z,14.40
2023-05-02T05:15:36.910Z,14.50
2023-05-02T05:18:06.989Z,14.50
2023-05-02T05:20:35.051Z,14.50
2023-05-02T05:23:03.120Z,14.50
2023-05-02T05:25:31.128Z,14.40
2023-05-02T05:28:00.546Z,14.40
2023-05-02T05:30:30.738Z,14.40
2023-05-02T05:32:59.207Z,14.40
2023-05-02T05:35:28.615Z,14.30
2023-05-02T05:37:56.865Z,14.40
2023-05-02T05:40:24.922Z,14.40
2023-05-02T05:42:53.129Z,14.40
2023-05-02T05:45:21.488Z,14.40
2023-05-02T05:47:49.946Z,14.40
2023-05-02T05:50:18.214Z,14.40
2023-05-02T05:52:47.651Z,14.50
2023-05-02T05:55:16.308Z,14.50
2023-05-02T05:57:44.340Z,14.60
2023-05-02T06:00:13.607Z,14.60
2023-05-02T06:02:41.831Z,14.60
2023-05-02T06:05:10.735Z,14.70
2023-05-02T06:07:39.046Z,14.70
2023-05-02T06:10:09.939Z,14.70
2023-05-02T06:12:38.302Z,14.70
2023-05-02T06:15:07.159Z,14.70
2023-05-02T06:17:35.340Z,14.80
2023-05-02T06:20:05.087Z,14.80
2023-05-02T06:22:33.239Z,14.80
2023-05-02T06:25:01.322Z,14.80
2023-05-02T06:27:33.467Z,14.80
2023-05-02T06:30:02.128Z,14.70
2023-05-02T06:32:32.325Z,14.70
2023-05-02T06:35:00.543Z,14.60
2023-05-02T06:37:28.734Z,14.60
2023-05-02T06:39:56.739Z,14.70
2023-05-02T06:42:25.089Z,14.60
2023-05-02T06:44:54.590Z,14.60
2023-05-02T06:47:24.291Z,14.60
2023-05-02T06:49:52.934Z,14.60
2023-05-02T06:52:21.092Z,14.70
2023-05-02T06:54:49.122Z,14.70
2023-05-02T06:57:17.358Z,14.70
2023-05-02T06:59:45.479Z,14.80
2023-05-02T07:02:14.901Z,14.80
2023-05-02T07:04:43.477Z,14.80
2023-05-02T07:07:11.626Z,14.80
2023-05-02T07:09:39.688Z,14.80
2023-05-02T07:12:08.123Z,14.70
2023-05-02T07:14:36.698Z,14.60
2023-05-02T07:17:04.781Z,14.60
2023-05-02T07:19:34.332Z,14.60
2023-05-02T07:22:02.405Z,14.70
2023-05-02T07:24:30.810Z,14.90
2023-05-02T07:26:59.014Z,15.00
2023-05-02T07:29:27.051Z,15.20
2023-05-02T07:31:55.134Z,15.40
2023-05-02T07:34:23.416Z,15.50
2023-05-02T07:36:52.778Z,15.60
2023-05-02T07:39:20.918Z,15.70
2023-05-02T07:41:49.095Z,15.80
2023-05-02T07:44:17.129Z,15.90
2023-05-02T07:46:45.256Z,15.90
2023-05-02T07:49:14.161Z,16.00
2023-05-02T07:51:42.637Z,16.00
2023-05-02T07:54:18.456Z,16.10
2023-05-02T07:56:47.352Z,16.30
2023-05-02T07:59:15.771Z,16.50
2023-05-02T08:01:44.308Z,16.60
2023-05-02T08:04:13.399Z,16.60
2023-05-02T08:06:42.441Z,16.60
2023-05-02T08:09:10.691Z,16.50
2023-05-02T08:11:40.083Z,16.50
2023-05-02T08:14:08.184Z,16.60
2023-05-02T08:16:37.140Z,16.70
2023-05-02T08:19:05.231Z,16.80
2023-05-02T08:21:33.733Z,17.00
2023-05-02T08:24:02.842Z,17.20
2023-05-02T08:26:31.089Z,17.30
2023-05-02T08:29:01.178Z,17.40
2023-05-02T08:31:29.197Z,17.50
2023-05-02T08:33:57.323Z,17.60
2023-05-02T08:36:27.897Z,17.50
2023-05-02T08:38:56.106Z,17.30
2023-05-02T08:41:24.869Z,17.20
2023-05-02T08:43:54.002Z,17.10
2023-05-02T08:46:24.845Z,17.00
2023-05-02T08:48:53.668Z,16.80
2023-05-02T08:51:23.670Z,16.70
2023-05-02T08:53:53.171Z,16.70
2023-05-02T08:56:22.017Z,16.70
2023-05-02T08:58:51.024Z,16.70
2023-05-02T09:01:21.864Z,16.70
2023-05-02T09:03:52.517Z,16.70
2023-05-02T09:06:22.818Z,16.70
2023-05-02T09:08:52.507Z,16.80
2023-05-02T09:11:21.331Z,16.80
2023-05-02T09:13:51.013Z,16.80
2023-05-02T09:16:22.716Z,16.90
2023-05-02T09:18:55.544Z,17.10
2023-05-02T09:21:25.345Z,17.20
2023-05-02T09:23:54.989Z,17.40
2023-05-02T09:26:24.862Z,17.50
2023-05-02T09:28:54.078Z,17.60
2023-05-02T09:33:56.163Z,17.50
2023-05-02T09:36:25.186Z,17.30
2023-05-02T09:38:53.249Z,17.20
2023-05-02T09:41:22.189Z,17.20
2023-05-02T09:43:57.650Z,17.30
2023-05-02T09:46:25.947Z,17.40
2023-05-02T09:48:57.016Z,17.50
2023-05-02T09:51:26.688Z,17.50
2023-05-02T09:53:54.864Z,17.60
2023-05-02T09:56:23.976Z,17.60
2023-05-02T09:58:52.895Z,17.80
2023-05-02T10:01:21.672Z,17.90
2023-05-02T10:03:50.364Z,18.00
2023-05-02T10:06:21.685Z,18.10
2023-05-02T10:08:50.664Z,18.20
2023-05-02T10:11:18.734Z,18.30
2023-05-02T10:13:47.751Z,18.40
2023-05-02T10:16:23.339Z,18.50
2023-05-02T10:19:03.150Z,18.50
2023-05-02T10:21:33.476Z,18.40
2023-05-02T10:24:03.560Z,18.30
2023-05-02T10:26:31.817Z,18.20
2023-05-02T10:29:00.787Z,18.20
2023-05-02T10:31:34.921Z,18.20
2023-05-02T10:34:05.808Z,18.30
2023-05-02T10:36:35.444Z,18.30
2023-05-02T10:39:04.020Z,18.20
2023-05-02T10:41:34.700Z,18.10
2023-05-02T10:44:07.550Z,18.00
2023-05-02T10:46:36.742Z,17.90
2023-05-02T10:49:08.498Z,17.70
2023-05-02T10:51:39.362Z,17.50
2023-05-02T10:54:26.464Z,17.30
2023-05-02T10:57:08.573Z,17.10
2023-05-02T10:59:40.870Z,17.10
2023-05-02T11:02:49.944Z,17.10
2023-05-02T11:05:18.461Z,17.00
2023-05-02T11:07:47.874Z,16.90
2023-05-02T11:10:29.243Z,16.70
2023-05-02T11:13:05.975Z,16.50
2023-05-02T11:16:00.564Z,16.30
2023-05-02T11:18:28.607Z,16.20
2023-05-02T11:21:27.865Z,16.10
2023-05-02T11:24:29.190Z,16.10
2023-05-02T11:27:43.866Z,16.20
2023-05-02T11:30:13.758Z,16.40
2023-05-02T11:33:13.227Z,16.50
2023-05-02T11:35:44.022Z,16.70
2023-05-02T11:38:14.027Z,16.80
2023-05-02T11:40:42.746Z,17.00
2023-05-02T11:43:16.820Z,17.10
2023-05-02T11:45:45.005Z,17.10
2023-05-02T11:48:14.468Z,17.20
2023-05-02T11:50:49.632Z,17.30
2023-05-02T11:53:22.251Z,17.40
2023-05-02T11:55:52.341Z,17.50
2023-05-02T11:58:23.714Z,17.60
2023-05-02T12:00:52.744Z,17.70
2023-05-02T12:03:26.355Z,17.80
2023-05-02T12:05:54.937Z,17.80
2023-05-02T12:08:24.828Z,17.70
2023-05-02T12:10:54.387Z,17.60
2023-05-02T12:13:26.229Z,17.50
2023-05-02T12:15:56.186Z,17.50
2023-05-02T12:18:27.120Z,17.40
2023-05-02T12:20:57.181Z,17.20
2023-05-02T12:23:27.371Z,17.10
2023-05-02T12:25:55.646Z,17.20
2023-05-02T12:28:25.035Z,17.30
2023-05-02T12:30:53.382Z,17.40
2023-05-02T12:33:21.472Z,17.50
2023-05-02T12:35:49.669Z,17.60
2023-05-02T12:38:20.413Z,17.60
2023-05-02T12:40:50.489Z,17.50
2023-05-02T12:43:18.911Z,17.50
2023-05-02T12:45:49.670Z,17.40
2023-05-02T12:48:22.572Z,17.30
2023-05-02T12:50:51.225Z,17.30
2023-05-02T12:53:38.646Z,17.30
2023-05-02T12:56:07.817Z,17.40
2023-05-02T12:58:43.913Z,17.30
2023-05-02T13:01:14.251Z,17.20
2023-05-02T13:03:43.174Z,17.10
2023-05-02T13:06:11.524Z,17.10
2023-05-02T13:08:39.870Z,17.10
2023-05-02T13:11:07.982Z,17.20
2023-05-02T13:13:36.334Z,17.30
2023-05-02T13:16:05.070Z,17.30
2023-05-02T13:18:34.799Z,17.30
2023-05-02T13:21:03.072Z,17.40
2023-05-02T13:23:31.077Z,17.50
2023-05-02T13:25:59.285Z,17.60
2023-05-02T13:28:27.933Z,17.50
2023-05-02T13:30:56.075Z,17.40
2023-05-02T13:33:24.301Z,17.40
2023-05-02T13:35:53.970Z,17.30
2023-05-02T13:38:22.022Z,17.50
2023-05-02T13:40:50.772Z,17.60
2023-05-02T13:43:18.902Z,17.80
2023-05-02T13:45:48.823Z,17.90
2023-05-02T13:48:17.120Z,18.00
2023-05-02T13:50:45.167Z,18.00
2023-05-02T13:53:14.629Z,17.90
2023-05-02T13:55:42.876Z,17.90
2023-05-02T13:58:10.903Z,17.80
2023-05-02T14:00:38.976Z,17.70
2023-05-02T14:03:07.084Z,17.70
2023-05-02T14:05:36.598Z,17.60
2023-05-02T14:08:04.705Z,17.40
2023-05-02T14:10:38.056Z,17.20
2023-05-02T14:13:06.222Z,17.10
2023-05-02T14:15:34.394Z,17.10
2023-05-02T14:18:02.444Z,17.00
2023-05-02T14:20:30.557Z,17.10
2023-05-02T14:22:58.499Z,17.00
2023-05-02T14:25:26.612Z,17.00
2023-05-02T14:27:56.171Z,16.90
2023-05-02T14:30:24.218Z,16.80
2023-05-02T14:32:52.532Z,16.70
2023-05-02T14:35:20.712Z,16.60
2023-05-02T14:37:48.757Z,16.50
2023-05-02T14:40:16.922Z,16.50
2023-05-02T14:42:45.885Z,16.50
2023-05-02T14:45:15.457Z,16.40
2023-05-02T14:47:43.511Z,16.30
2023-05-02T14:50:12.167Z,16.30
2023-05-02T14:52:40.254Z,16.10
2023-05-02T14:55:08.942Z,16.00
2023-05-02T14:57:37.170Z,15.80
2023-05-02T15:00:08.157Z,15.70
2023-05-02T15:02:38.054Z,15.60
2023-05-02T15:05:12.045Z,15.60
2023-05-02T15:07:40.807Z,15.60
2023-05-02T15:10:10.340Z,15.50
2023-05-02T15:12:38.390Z,15.40
2023-05-02T15:15:09.089Z,15.30
2023-05-02T15:17:39.167Z,15.20
2023-05-02T15:20:08.598Z,15.10
2023-05-02T15:22:36.626Z,15.10
2023-05-02T15:25:05.405Z,15.10
2023-05-02T15:27:33.571Z,15.20
2023-05-02T15:30:03.333Z,15.30
2023-05-02T15:32:31.772Z,15.30
2023-05-02T15:35:01.359Z,15.40
2023-05-02T15:37:29.460Z,15.50
2023-05-02T15:39:57.522Z,15.70
2023-05-02T15:42:25.583Z,15.90
2023-05-02T15:44:54.072Z,16.10
2023-05-02T15:47:23.213Z,16.40
2023-05-02T15:49:53.913Z,16.50
2023-05-02T15:52:23.557Z,16.70
2023-05-02T15:54:51.848Z,16.90
2023-05-02T15:57:21.206Z,17.00
2023-05-02T15:59:49.503Z,17.20
2023-05-02T16:02:18.097Z,17.30
2023-05-02T16:04:46.550Z,17.50
2023-05-02T16:07:14.767Z,17.60
2023-05-02T16:09:44.317Z,17.60
2023-05-02T16:12:12.512Z,17.50
2023-05-02T16:14:40.554Z,17.40
2023-05-02T16:17:16.556Z,17.30
2023-05-02T16:19:44.537Z,17.30
2023-05-02T16:22:12.664Z,17.30
2023-05-02T16:24:41.220Z,17.40
2023-05-02T16:27:09.913Z,17.60
2023-05-02T16:29:38.044Z,17.80
2023-05-02T16:32:07.990Z,18.00
2023-05-02T16:34:37.718Z,18.20
2023-05-02T16:37:05.967Z,18.30
2023-05-02T16:39:34.868Z,18.40
2023-05-02T16:42:03.134Z,18.40
2023-05-02T16:44:31.364Z,18.40
2023-05-02T16:46:59.323Z,18.50
2023-05-02T16:49:27.330Z,18.70
2023-05-02T16:51:56.658Z,18.80
2023-05-02T16:54:24.816Z,18.50
2023-05-02T16:56:53.333Z,18.10
2023-05-02T16:59:21.523Z,17.90
2023-05-02T17:01:49.990Z,17.60
2023-05-02T17:04:18.371Z,17.40
2023-05-02T17:06:47.709Z,17.20
2023-05-02T17:09:18.549Z,17.20
2023-05-02T17:11:47.984Z,17.40
2023-05-02T17:14:16.123Z,17.70
2023-05-02T17:16:44.264Z,17.90
2023-05-02T17:19:12.631Z,18.00
2023-05-02T17:21:40.670Z,17.80
2023-05-02T17:24:08.764Z,17.70
2023-05-02T17:26:38.113Z,17.60
2023-05-02T17:29:06.464Z,17.40
2023-05-02T17:31:34.503Z,17.20
2023-05-02T17:34:02.632Z,17.00
2023-05-02T17:36:32.674Z,16.80
2023-05-02T17:39:00.772Z,16.60
2023-05-02T17:41:28.855Z,16.40
2023-05-02T17:43:58.172Z,16.30
2023-05-02T17:46:26.717Z,16.20
2023-05-02T17:48:54.933Z,16.00
2023-05-02T17:51:22.954Z,15.90
2023-05-02T17:53:52.141Z,15.90
2023-05-02T17:56:20.148Z,15.80
2023-05-02T17:58:48.167Z,15.80
2023-05-02T18:01:17.690Z,15.70
2023-05-02T18:03:47.495Z,15.60
2023-05-02T18:06:19.724Z,15.60
2023-05-02T18:08:48.003Z,15.50
2023-05-02T18:11:17.176Z,15.30
2023-05-02T18:13:45.837Z,15.30
2023-05-02T18:16:14.727Z,15.30
2023-05-02T18:18:44.171Z,15.30
2023-05-02T18:21:12.544Z,15.30
2023-05-02T18:23:41.025Z,15.20
2023-05-02T18:26:13.497Z,15.20
2023-05-02T18:28:44.124Z,15.20
2023-05-02T18:31:17.597Z,15.20
2023-05-02T18:33:47.694Z,15.10
2023-05-02T18:36:19.183Z,15.10
2023-05-02T18:38:47.566Z,15.10
2023-05-02T18:41:16.058Z,15.10
2023-05-02T18:43:44.021Z,15.10
2023-05-02T18:46:12.852Z,15.00
2023-05-02T18:48:40.863Z,15.00
2023-05-02T18:51:10.813Z,14.90
2023-05-02T18:53:38.771Z,14.90
2023-05-02T18:56:13.491Z,14.80
2023-05-02T18:58:42.002Z,14.80
2023-05-02T19:01:14.803Z,14.70
2023-05-02T19:03:43.463Z,14.80
2023-05-02T19:06:13.866Z,14.70
2023-05-02T19:08:41.995Z,14.70
2023-05-02T19:11:10.029Z,14.70
2023-05-02T19:13:40.013Z,14.70
2023-05-02T19:16:12.453Z,14.70
2023-05-02T19:18:41.265Z,14.70
2023-05-02T19:21:12.590Z,14.60
2023-05-02T19:23:41.837Z,14.70
2023-05-02T19:26:13.574Z,14.60
2023-05-02T19:28:42.043Z,14.60
2023-05-02T19:31:11.504Z,14.60
2023-05-02T19:33:40.308Z,14.50
2023-05-02T19:36:08.962Z,14.50
2023-05-02T19:38:38.266Z,14.50
2023-05-02T19:41:06.212Z,14.50
2023-05-02T19:43:36.022Z,14.50
2023-05-02T19:46:04.071Z,14.50
2023-05-02T19:48:32.038Z,14.50
2023-05-02T19:51:02.485Z,14.50
2023-05-02T19:53:30.860Z,14.50
2023-05-02T19:56:00.388Z,14.50
2023-05-02T19:58:28.790Z,14.40
2023-05-02T20:00:57.202Z,14.30
2023-05-02T20:03:25.463Z,14.30
2023-05-02T20:05:53.799Z,14.20
2023-05-02T20:08:23.823Z,14.20
2023-05-02T20:10:51.936Z,14.20
2023-05-02T20:13:21.285Z,14.10
2023-05-02T20:15:50.527Z,14.10
2023-05-02T20:18:18.749Z,14.10
2023-05-02T20:20:46.772Z,14.00
2023-05-02T20:23:15.047Z,14.00
2023-05-02T20:25:43.704Z,14.00
2023-05-02T20:28:11.742Z,14.00
2023-05-02T20:30:42.004Z,13.90
2023-05-02T20:33:15.622Z,13.90
2023-05-02T20:35:44.622Z,13.80
2023-05-02T20:38:12.755Z,13.80
2023-05-02T20:40:42.655Z,13.70
2023-05-02T20:43:11.845Z,13.70
2023-05-02T20:45:41.254Z,13.80
2023-05-02T20:48:09.410Z,13.70
2023-05-02T20:50:37.497Z,13.70
2023-05-02T20:53:05.525Z,13.70
2023-05-02T20:55:35.659Z,13.60
2023-05-02T20:58:03.654Z,13.60
2023-05-02T21:00:32.617Z,13.50
2023-05-02T21:03:02.061Z,13.40
2023-05-02T21:05:30.097Z,13.40
2023-05-02T21:07:58.078Z,13.40
2023-05-02T21:10:27.643Z,13.40
2023-05-02T21:12:55.616Z,13.30
2023-05-02T21:15:23.596Z,13.30
2023-05-02T21:17:52.431Z,13.20
2023-05-02T21:20:22.200Z,13.20
2023-05-02T21:22:50.229Z,13.20
2023-05-02T21:25:18.184Z,13.20
2023-05-02T21:27:46.337Z,13.20
2023-05-02T21:30:14.965Z,13.10
2023-05-02T21:32:43.549Z,13.10
2023-05-02T21:35:12.183Z,13.10
2023-05-02T21:37:41.500Z,13.10
2023-05-02T21:40:10.560Z,13.10
2023-05-02T21:42:38.747Z,13.10
2023-05-02T21:45:08.046Z,13.00
2023-05-02T21:47:36.065Z,13.00
2023-05-02T21:50:05.376Z,13.00
2023-05-02T21:52:33.445Z,13.00
2023-05-02T21:55:02.829Z,13.00
2023-05-02T21:57:30.790Z,13.00
2023-05-02T21:59:58.748Z,13.00
2023-05-02T22:02:27.620Z,13.00
2023-05-02T22:04:56.055Z,12.90
2023-05-02T22:07:24.064Z,12.90
2023-05-02T22:09:52.025Z,12.90
2023-05-02T22:12:23.631Z,12.90
2023-05-02T22:14:51.843Z,12.90
2023-05-02T22:17:22.946Z,12.90
2023-05-02T22:19:51.676Z,12.90
2023-05-02T22:22:19.611Z,12.90
2023-05-02T22:24:47.608Z,12.80
2023-05-02T22:27:15.552Z,12.80
2023-05-02T22:29:44.830Z,12.80
2023-05-02T22:32:14.783Z,12.80
2023-05-02T22:34:42.843Z,12.80
2023-05-02T22:37:10.975Z,12.80
2023-05-02T22:39:38.997Z,12.70
2023-05-02T22:42:06.986Z,12.70
2023-05-02T22:44:46.785Z,12.70
2023-05-02T22:47:23.009Z,12.70
2023-05-02T22:49:52.160Z,12.70
2023-05-02T22:52:20.692Z,12.70
2023-05-02T22:54:48.873Z,12.70
2023-05-02T22:57:16.824Z,12.70
2023-05-02T22:59:44.839Z,12.70
2023-05-02T23:02:12.867Z,12.70
2023-05-02T23:04:42.222Z,12.70
2023-05-02T23:07:10.149Z,12.60
2023-05-02T23:09:38.275Z,12.60
2023-05-02T23:12:06.698Z,12.60
2023-05-02T23:14:34.673Z,12.60
2023-05-02T23:17:03.569Z,12.60
2023-05-02T23:19:31.573Z,12.60
2023-05-02T23:22:00.949Z,12.60
2023-05-02T23:24:29.247Z,12.60
2023-05-02T23:26:57.260Z,12.50
2023-05-02T23:29:25.992Z,12.60
2023-05-02T23:31:55.496Z,12.50
2023-05-02T23:34:23.807Z,12.50
2023-05-02T23:36:53.250Z,12.50
2023-05-02T23:39:22.667Z,12.50
2023-05-02T23:41:50.628Z,12.50
2023-05-02T23:44:18.578Z,12.50
2023-05-02T23:46:46.683Z,12.50
2023-05-02T23:49:14.671Z,12.50
2023-05-02T23:51:42.635Z,12.40
2023-05-02T23:54:10.858Z,12.40
2023-05-02T23:56:40.344Z,12.40
2023-05-02T23:59:08.301Z,12.40
